Time;durP1;ratioP1;P1;durP2;ratioP2;P2;SDS_P1;SDS_P2;PMS_P1;PMS_P2;Temp;Humidity;BMP_temperature;BMP_pressure;BME280_temperature;BME280_humidity;BME280_pressure;Samples;Min_cycle;Max_cycle;Signal;HPM_P1;HPM_P2
2022/07/23 00:00:59;;;;;;;10.00;4.50;;;;;;;16.60;72.81;99601.40;109197;1274;139087;-60
2022/07/23 00:03:26;;;;;;;7.40;4.70;;;;;;;16.57;72.97;99600.14;109492;1274;22514;-59
2022/07/23 00:05:53;;;;;;;9.80;4.70;;;;;;;16.55;73.00;99604.44;109319;1274;138004;-59
2022/07/23 00:08:20;;;;;;;6.70;4.60;;;;;;;16.54;72.99;99602.15;109454;1274;22519;-60
2022/07/23 00:10:47;;;;;;;5.60;4.60;;;;;;;16.52;72.99;99600.62;109426;1274;22431;-59
2022/07/23 00:13:13;;;;;;;6.30;4.00;;;;;;;16.49;73.11;99597.46;109287;1274;137871;-59
2022/07/23 00:15:40;;;;;;;13.10;4.80;;;;;;;16.45;73.27;99597.91;109415;1274;22485;-59
2022/07/23 00:18:07;;;;;;;6.40;4.40;;;;;;;16.46;73.37;99602.08;109338;1274;139344;-60
2022/07/23 00:20:34;;;;;;;6.70;4.00;;;;;;;16.46;73.35;99604.05;109432;1274;22478;-60
2022/07/23 00:23:01;;;;;;;6.20;4.40;;;;;;;16.43;73.23;99603.66;109468;1273;22543;-60
2022/07/23 00:25:27;;;;;;;9.60;5.70;;;;;;;16.41;73.42;99607.43;109336;1272;137681;-60
2022/07/23 00:27:57;;;;;;;16.50;4.80;;;;;;;16.38;73.45;99609.01;109368;1274;23172;-59
2022/07/23 00:30:24;;;;;;;8.10;4.30;;;;;;;16.37;73.61;99608.41;109230;1274;139909;-60
2022/07/23 00:33:00;;;;;;;7.50;4.60;;;;;;;16.35;73.71;99608.88;109490;1274;22419;-60
2022/07/23 00:35:28;;;;;;;10.70;4.60;;;;;;;16.32;73.80;99610.05;109442;1274;22442;-60
2022/07/23 00:37:56;;;;;;;10.30;4.50;;;;;;;16.30;73.77;99610.64;109155;1274;138093;-59
2022/07/23 00:40:22;;;;;;;7.60;5.00;;;;;;;16.29;73.77;99612.59;109473;1274;22283;-59
2022/07/23 00:42:49;;;;;;;8.20;5.50;;;;;;;16.27;73.86;99616.41;109194;1274;137942;-60
2022/07/23 00:45:16;;;;;;;8.00;4.70;;;;;;;16.24;74.03;99614.50;109314;1274;22480;-59
2022/07/23 00:47:43;;;;;;;6.40;4.80;;;;;;;16.22;74.07;99614.42;109275;1274;22449;-59
2022/07/23 00:50:10;;;;;;;9.00;4.40;;;;;;;16.20;74.14;99616.52;109370;1273;139381;-59
2022/07/23 00:52:37;;;;;;;9.80;4.50;;;;;;;16.19;74.22;99618.46;109358;1274;22416;-59
2022/07/23 00:55:04;;;;;;;11.90;4.90;;;;;;;16.18;74.24;99615.49;109127;1274;138596;-59
2022/07/23 00:57:31;;;;;;;10.70;4.60;;;;;;;16.17;74.26;99624.41;109388;1274;22473;-58
2022/07/23 00:59:58;;;;;;;7.30;4.50;;;;;;;16.16;74.20;99626.75;109335;1274;138195;-59
2022/07/23 01:02:25;;;;;;;8.20;4.80;;;;;;;16.15;74.29;99622.22;109286;1274;22560;-59
2022/07/23 01:04:52;;;;;;;5.30;4.40;;;;;;;16.13;74.42;99624.09;109245;1273;23142;-59
2022/07/23 01:07:20;;;;;;;7.60;4.40;;;;;;;16.13;74.32;99623.17;109345;1274;139372;-58
2022/07/23 01:09:46;;;;;;;5.40;4.50;;;;;;;16.11;74.44;99628.14;109286;1274;23481;-59
2022/07/23 01:12:13;;;;;;;4.30;3.80;;;;;;;16.09;74.49;99630.69;109211;1274;139393;-59
2022/07/23 01:14:40;;;;;;;6.70;4.20;;;;;;;16.08;74.61;99629.86;109353;1274;22509;-59
2022/07/23 01:17:07;;;;;;;6.00;4.90;;;;;;;16.07;74.59;99628.98;105633;1274;22558;-58
2022/07/23 01:19:34;;;;;;;7.40;4.80;;;;;;;16.06;74.59;99633.29;104940;1274;139248;-58
2022/07/23 01:22:03;;;;;;;5.70;4.10;;;;;;;16.04;74.75;99636.00;105061;1274;25186;-59
2022/07/23 01:24:30;;;;;;;9.10;4.80;;;;;;;16.01;74.78;99633.08;109167;1274;138424;-58
2022/07/23 01:27:00;;;;;;;4.80;4.20;;;;;;;15.99;74.82;99632.50;109402;1274;22552;-58
2022/07/23 01:29:27;;;;;;;7.10;4.50;;;;;;;15.97;74.94;99633.23;109484;1274;22280;-58
2022/07/23 01:31:54;;;;;;;5.30;4.40;;;;;;;15.95;74.97;99632.86;109149;1274;139150;-59
2022/07/23 01:34:21;;;;;;;5.00;4.40;;;;;;;15.92;75.02;99633.22;109295;1274;22491;-59
2022/07/23 01:36:48;;;;;;;8.10;4.40;;;;;;;15.89;75.19;99630.48;109209;1274;139094;-58
2022/07/23 01:39:16;;;;;;;7.20;4.20;;;;;;;15.88;75.30;99635.34;109305;1274;22499;-58
2022/07/23 01:41:43;;;;;;;5.40;4.30;;;;;;;15.86;75.31;99633.73;109214;1276;22508;-59
2022/07/23 01:44:13;;;;;;;6.70;4.00;;;;;;;15.84;75.26;99632.27;109369;1274;137879;-58
2022/07/23 01:46:41;;;;;;;4.50;3.50;;;;;;;15.81;75.24;99635.36;109203;1274;23502;-59
2022/07/23 01:49:08;;;;;;;4.70;4.30;;;;;;;15.79;75.42;99632.30;109074;1274;139101;-59
2022/07/23 01:51:59;;;;;;;6.40;4.00;;;;;;;15.76;75.47;99632.55;109438;1273;22588;-60
2022/07/23 01:54:40;;;;;;;6.80;4.40;;;;;;;15.71;75.53;99635.06;109149;1274;138381;-59
2022/07/23 01:57:08;;;;;;;6.00;4.40;;;;;;;15.69;75.63;99636.86;109391;1274;22528;-59
2022/07/23 01:59:35;;;;;;;6.70;4.40;;;;;;;15.66;75.61;99641.98;109321;1274;22518;-59
2022/07/23 02:02:03;;;;;;;5.90;4.20;;;;;;;15.63;75.81;99640.91;109085;1274;137960;-59
2022/07/23 02:04:30;;;;;;;5.90;3.90;;;;;;;15.61;75.96;99640.09;109392;1274;23390;-59
2022/07/23 02:06:58;;;;;;;8.20;4.40;;;;;;;15.59;76.03;99638.80;109160;1274;138717;-59
2022/07/23 02:09:25;;;;;;;6.60;3.90;;;;;;;15.57;76.07;99636.03;109222;1274;22537;-59
2022/07/23 02:11:52;;;;;;;4.70;4.20;;;;;;;15.56;76.19;99638.18;109362;1274;138649;-59
2022/07/23 02:14:19;;;;;;;7.90;4.80;;;;;;;15.54;76.32;99636.58;109220;1274;22485;-59
2022/07/23 02:16:45;;;;;;;5.20;4.20;;;;;;;15.53;76.38;99633.66;109236;1274;22565;-59
2022/07/23 02:19:14;;;;;;;4.70;4.00;;;;;;;15.53;76.41;99640.15;109118;1274;138628;-60
2022/07/23 02:21:40;;;;;;;4.40;3.80;;;;;;;15.51;76.51;99637.91;109273;1274;22480;-60
2022/07/23 02:24:08;;;;;;;6.30;4.20;;;;;;;15.49;76.60;99639.35;109166;1274;138720;-60
2022/07/23 02:26:35;;;;;;;5.80;4.80;;;;;;;15.48;76.72;99640.50;109200;1276;22437;-60
2022/07/23 02:29:03;;;;;;;6.10;4.60;;;;;;;15.48;76.80;99639.85;109235;1274;22442;-60
2022/07/23 02:31:31;;;;;;;8.50;4.50;;;;;;;15.47;76.82;99632.49;109171;1274;138598;-59
2022/07/23 02:33:58;;;;;;;6.10;4.70;;;;;;;15.46;76.90;99637.77;109302;1274;22447;-59
2022/07/23 02:36:27;;;;;;;6.30;5.00;;;;;;;15.45;76.94;99638.00;109176;1274;138687;-59
2022/07/23 02:38:53;;;;;;;6.20;5.10;;;;;;;15.45;77.06;99640.52;109204;1274;23014;-59
2022/07/23 02:41:20;;;;;;;7.10;4.80;;;;;;;15.46;77.18;99639.64;109290;1274;23305;-59
2022/07/23 02:43:47;;;;;;;6.90;4.90;;;;;;;15.47;77.27;99645.07;109217;1274;138837;-59
2022/07/23 02:46:14;;;;;;;10.80;5.10;;;;;;;15.48;77.43;99646.77;109237;1274;23732;-59
2022/07/23 02:48:42;;;;;;;6.40;5.10;;;;;;;15.49;77.53;99643.15;109248;1274;138000;-59
2022/07/23 02:51:08;;;;;;;5.80;5.10;;;;;;;15.50;77.67;99646.48;109465;1274;22440;-59
2022/07/23 02:53:41;;;;;;;6.00;4.60;;;;;;;15.53;77.87;99649.27;109469;1272;22462;-59
2022/07/23 02:56:09;;;;;;;9.20;5.00;;;;;;;15.57;78.06;99651.14;107283;1277;140436;-55
2022/07/23 02:58:36;;;;;;;11.60;5.70;;;;;;;15.61;78.16;99655.59;104794;1275;25280;-54
2022/07/23 03:01:03;;;;;;;8.70;6.10;;;;;;;15.65;78.26;99655.13;104896;1275;139886;-54
2022/07/23 03:03:30;;;;;;;7.50;6.10;;;;;;;15.69;78.47;99653.34;104799;1277;22581;-54
2022/07/23 03:05:57;;;;;;;11.20;7.20;;;;;;;15.74;78.58;99651.63;104804;1274;139162;-54
2022/07/23 03:08:24;;;;;;;9.40;7.30;;;;;;;15.78;78.54;99654.63;104892;1274;24305;-54
2022/07/23 03:10:51;;;;;;;11.20;7.60;;;;;;;15.81;78.62;99652.88;109246;1274;22649;-54
2022/07/23 03:13:18;;;;;;;8.90;7.60;;;;;;;15.85;78.69;99653.02;109265;1274;140373;-54
2022/07/23 03:15:44;;;;;;;12.70;8.30;;;;;;;15.89;78.77;99659.51;109259;1274;23384;-55
2022/07/23 03:18:11;;;;;;;16.20;9.20;;;;;;;15.94;78.84;99660.52;109250;1274;139685;-55
2022/07/23 03:20:38;;;;;;;11.00;7.70;;;;;;;15.98;78.91;99661.52;109338;1274;22516;-55
2022/07/23 03:23:05;;;;;;;13.70;8.40;;;;;;;16.03;79.02;99664.10;109435;1274;22478;-55
2022/07/23 03:25:32;;;;;;;10.10;7.90;;;;;;;16.06;79.07;99663.09;109143;1274;140363;-55
2022/07/23 03:27:58;;;;;;;11.60;7.30;;;;;;;16.15;79.12;99666.30;109261;1274;22554;-55
2022/07/23 03:30:26;;;;;;;14.90;7.60;;;;;;;16.23;79.23;99667.30;109059;1274;139055;-55
2022/07/23 03:32:53;;;;;;;10.00;7.20;;;;;;;16.32;79.29;99668.69;109365;1274;23265;-55
2022/07/23 03:35:20;;;;;;;13.10;8.20;;;;;;;16.40;79.31;99670.70;109399;1274;22922;-55
2022/07/23 03:38:16;;;;;;;11.30;7.40;;;;;;;16.50;79.37;99672.16;109207;1274;22516;-54
2022/07/23 03:40:43;;;;;;;16.90;7.80;;;;;;;16.58;79.31;99675.88;109478;1273;22514;-55
2022/07/23 03:43:10;;;;;;;11.00;7.80;;;;;;;16.66;79.33;99676.95;109385;1274;139256;-55
2022/07/23 03:45:36;;;;;;;10.00;7.20;;;;;;;16.74;79.34;99677.79;109461;1273;23175;-55
2022/07/23 03:48:03;;;;;;;10.30;6.70;;;;;;;16.82;79.37;99673.61;109285;1274;140477;-55
2022/07/23 03:50:30;;;;;;;14.80;7.20;;;;;;;16.91;79.24;99671.45;109185;1274;23260;-55
2022/07/23 03:52:57;;;;;;;8.20;6.30;;;;;;;17.00;79.24;99674.64;109499;1272;23315;-55
2022/07/23 03:55:24;;;;;;;16.20;8.20;;;;;;;17.09;79.23;99678.02;109239;1274;137989;-55
2022/07/23 03:57:51;;;;;;;15.70;7.70;;;;;;;17.18;79.01;99679.16;109350;1274;22310;-55
2022/07/23 04:00:18;;;;;;;12.70;7.60;;;;;;;17.27;78.90;99678.70;109047;1274;138471;-54
2022/07/23 04:02:45;;;;;;;13.90;7.70;;;;;;;17.36;78.75;99681.59;109206;1274;22473;-55
2022/07/23 04:05:12;;;;;;;13.20;7.30;;;;;;;17.45;78.55;99681.84;109421;1274;22422;-54
2022/07/23 04:07:40;;;;;;;9.50;7.20;;;;;;;17.55;78.52;99683.02;109271;1274;138703;-55
2022/07/23 04:10:07;;;;;;;9.50;5.90;;;;;;;17.64;78.34;99678.52;109492;1272;22436;-55
2022/07/23 04:12:34;;;;;;;13.30;6.90;;;;;;;17.73;78.25;99675.14;109260;1274;139758;-55
2022/07/23 04:15:01;;;;;;;9.80;6.60;;;;;;;17.82;78.20;99674.05;109424;1274;22558;-55
2022/07/23 04:17:28;;;;;;;7.80;5.70;;;;;;;17.90;78.07;99673.08;109371;1273;22611;-54
2022/07/23 04:19:55;;;;;;;12.40;6.10;;;;;;;18.00;77.79;99673.23;109156;1274;138306;-55
2022/07/23 04:22:23;;;;;;;7.00;4.90;;;;;;;18.09;77.62;99668.00;109367;1274;22475;-54
2022/07/23 04:24:50;;;;;;;4.60;3.90;;;;;;;18.19;77.58;99668.91;109183;1274;138762;-54
2022/07/23 04:27:18;;;;;;;5.30;4.10;;;;;;;18.30;77.39;99667.15;109400;1274;23575;-55
2022/07/23 04:29:45;;;;;;;9.00;4.40;;;;;;;18.42;77.17;99666.91;109170;1274;22397;-55
2022/07/23 04:32:13;;;;;;;4.40;3.70;;;;;;;18.55;76.98;99667.82;109167;1274;139137;-55
2022/07/23 04:34:40;;;;;;;4.20;3.70;;;;;;;18.67;76.69;99662.67;109400;1273;22649;-55
2022/07/23 04:37:07;;;;;;;4.90;4.00;;;;;;;18.79;76.32;99661.99;109245;1274;140652;-56
2022/07/23 04:39:34;;;;;;;5.50;3.40;;;;;;;18.91;75.84;99666.54;109445;1273;22584;-55
2022/07/23 04:42:01;;;;;;;7.70;3.60;;;;;;;19.03;75.21;99659.80;109337;1273;139007;-55
2022/07/23 04:44:29;;;;;;;3.70;3.10;;;;;;;19.14;74.79;99664.36;109283;1274;22527;-55
2022/07/23 04:46:56;;;;;;;5.10;2.40;;;;;;;19.25;74.18;99663.67;109221;1273;22429;-55
2022/07/23 04:49:23;;;;;;;4.60;2.80;;;;;;;19.35;73.48;99663.36;109397;1273;138619;-55
2022/07/23 04:51:50;;;;;;;2.70;2.30;;;;;;;19.46;73.12;99668.08;109495;1272;22460;-55
2022/07/23 04:54:17;;;;;;;3.90;2.90;;;;;;;19.57;72.60;99666.80;109265;1274;140281;-55
2022/07/23 04:56:44;;;;;;;5.70;2.90;;;;;;;19.70;71.97;99669.98;109425;1274;22404;-56
2022/07/23 04:59:11;;;;;;;5.50;2.60;;;;;;;19.80;71.47;99670.53;109482;1273;25019;-56
2022/07/23 05:01:39;;;;;;;5.20;2.90;;;;;;;19.90;70.82;99668.61;109280;1272;138972;-55
2022/07/23 05:04:06;;;;;;;4.10;2.70;;;;;;;20.00;70.39;99666.36;109392;1274;22455;-55
2022/07/23 05:06:34;;;;;;;4.60;2.80;;;;;;;20.11;69.78;99673.27;109241;1274;138438;-55
2022/07/23 05:09:00;;;;;;;3.10;2.60;;;;;;;20.21;69.43;99672.95;109231;1274;23455;-55
2022/07/23 05:11:28;;;;;;;3.90;3.30;;;;;;;20.30;68.95;99673.91;109312;1274;22435;-56
2022/07/23 05:13:55;;;;;;;5.10;3.20;;;;;;;20.40;68.62;99673.16;109314;1273;138627;-55
2022/07/23 05:16:22;;;;;;;7.70;3.10;;;;;;;20.51;68.31;99676.52;109422;1274;22496;-56
2022/07/23 05:18:50;;;;;;;4.40;2.60;;;;;;;20.61;67.91;99675.95;109313;1274;139374;-55
2022/07/23 05:21:17;;;;;;;3.90;2.60;;;;;;;20.76;67.41;99680.05;109352;1274;22467;-56
2022/07/23 05:23:43;;;;;;;4.70;2.60;;;;;;;20.91;66.84;99677.79;109369;1274;22504;-56
2022/07/23 05:26:10;;;;;;;5.70;3.00;;;;;;;21.10;66.40;99682.81;109313;1273;138166;-55
2022/07/23 05:28:37;;;;;;;11.90;3.00;;;;;;;21.36;65.91;99683.27;109470;1272;22437;-56
2022/07/23 05:31:05;;;;;;;8.40;2.60;;;;;;;21.68;64.96;99683.77;109328;1274;138978;-55
2022/07/23 05:33:32;;;;;;;3.40;2.40;;;;;;;22.04;63.71;99680.08;109485;1274;23130;-56
2022/07/23 05:36:02;;;;;;;2.50;2.20;;;;;;;22.41;62.45;99671.86;107765;1274;138631;-56
2022/07/23 05:38:31;;;;;;;4.00;2.90;;;;;;;22.84;61.13;99671.98;104864;1274;22601;-54
2022/07/23 05:40:59;;;;;;;3.70;2.90;;;;;;;23.24;60.36;99674.75;109345;1274;22487;-55
2022/07/23 05:43:26;;;;;;;3.70;2.40;;;;;;;23.64;59.24;99673.17;109251;1274;138863;-54
2022/07/23 05:45:53;;;;;;;4.30;2.70;;;;;;;23.98;57.62;99676.19;109215;1274;22679;-54
2022/07/23 05:48:20;;;;;;;2.00;1.80;;;;;;;24.26;55.22;99675.67;109077;1275;137727;-55
2022/07/23 05:50:57;;;;;;;2.70;1.90;;;;;;;24.48;54.18;99678.02;108888;1274;22484;-54
2022/07/23 05:53:29;;;;;;;2.00;1.80;;;;;;;24.75;53.46;99676.38;109211;1274;22498;-55
2022/07/23 05:56:19;;;;;;;4.30;1.70;;;;;;;25.08;52.59;99674.33;109296;1274;23747;-55
2022/07/23 05:58:46;;;;;;;2.20;2.00;;;;;;;25.35;51.69;99674.13;109211;1274;22552;-55
2022/07/23 06:01:14;;;;;;;9.90;2.50;;;;;;;25.59;50.60;99668.26;109068;1276;137900;-54
2022/07/23 06:03:48;;;;;;;3.70;2.20;;;;;;;25.76;50.17;99664.19;109106;1276;23267;-54
2022/07/23 06:06:15;;;;;;;6.00;2.60;;;;;;;25.83;49.38;99666.86;109077;1275;138077;-54
2022/07/23 06:08:42;;;;;;;4.90;2.40;;;;;;;25.82;48.81;99670.50;109091;1276;23434;-55
2022/07/23 06:11:10;;;;;;;5.70;1.80;;;;;;;25.75;48.49;99669.84;109068;1274;23125;-54
2022/07/23 06:13:37;;;;;;;5.40;2.30;;;;;;;25.61;48.76;99673.39;109033;1274;138556;-54
2022/07/23 06:16:04;;;;;;;5.90;2.30;;;;;;;25.42;49.32;99672.67;109074;1274;23608;-55
2022/07/23 06:18:31;;;;;;;2.80;1.80;;;;;;;25.28;49.05;99672.96;108988;1275;139598;-54
2022/07/23 06:20:58;;;;;;;27.80;5.20;;;;;;;25.15;49.36;99674.41;109118;1276;22478;-55
2022/07/23 06:23:26;;;;;;;10.90;2.80;;;;;;;25.02;49.46;99674.21;109001;1275;23659;-55
2022/07/23 06:25:53;;;;;;;7.50;2.90;;;;;;;24.85;49.99;99673.42;108992;1275;139531;-55
2022/07/23 06:28:20;;;;;;;2.70;2.20;;;;;;;24.69;50.24;99673.77;109231;1275;22452;-55
2022/07/23 06:30:47;;;;;;;3.90;2.00;;;;;;;24.54;50.56;99674.88;109011;1275;137439;-55
2022/07/23 06:33:14;;;;;;;4.00;2.20;;;;;;;24.45;50.87;99677.03;109176;1274;22461;-55
2022/07/23 06:35:40;;;;;;;4.70;1.90;;;;;;;24.32;50.28;99677.71;109304;1275;22272;-55
2022/07/23 06:38:07;;;;;;;3.30;2.00;;;;;;;24.18;50.81;99677.52;109066;1275;138003;-55
2022/07/23 06:40:34;;;;;;;1.70;1.50;;;;;;;24.11;50.61;99683.15;109198;1273;22419;-55
2022/07/23 06:43:01;;;;;;;12.30;1.80;;;;;;;24.02;50.56;99684.34;109082;1273;138449;-55
2022/07/23 06:45:29;;;;;;;3.30;2.20;;;;;;;23.92;50.72;99687.98;109248;1273;22438;-55
2022/07/23 06:47:56;;;;;;;1.80;1.60;;;;;;;23.82;50.99;99688.70;109107;1275;137841;-56
2022/07/23 06:50:22;;;;;;;5.10;1.50;;;;;;;23.74;50.62;99685.08;109249;1274;22450;-56
2022/07/23 06:52:50;;;;;;;4.10;2.00;;;;;;;23.71;50.73;99686.77;109353;1274;22642;-55
2022/07/23 06:55:16;;;;;;;3.00;1.90;;;;;;;23.66;50.69;99686.62;109102;1274;139903;-55
2022/07/23 06:57:44;;;;;;;3.10;1.90;;;;;;;23.62;51.22;99684.73;109380;1273;22425;-55
2022/07/23 07:00:11;;;;;;;2.00;1.80;;;;;;;23.63;51.80;99689.44;109215;1273;139969;-55
2022/07/23 07:02:38;;;;;;;2.80;2.20;;;;;;;23.65;51.83;99689.85;109288;1273;22443;-55
2022/07/23 07:05:05;;;;;;;4.90;1.70;;;;;;;23.64;51.88;99689.79;109286;1273;22460;-55
2022/07/23 07:07:33;;;;;;;1.90;1.60;;;;;;;23.63;51.89;99688.27;109440;1273;138385;-55
2022/07/23 07:10:01;;;;;;;2.20;1.60;;;;;;;23.65;51.51;99687.46;109377;1274;22469;-58
2022/07/23 07:12:28;;;;;;;2.10;1.90;;;;;;;23.68;51.60;99684.06;109290;1273;138175;-55
2022/07/23 07:14:54;;;;;;;3.50;1.70;;;;;;;23.76;51.60;99681.82;109275;1273;22496;-53
2022/07/23 07:17:21;;;;;;;10.00;1.90;;;;;;;23.81;51.12;99683.52;109393;1273;22445;-55
2022/07/23 07:19:48;;;;;;;4.00;1.80;;;;;;;23.83;50.84;99675.71;109209;1274;137641;-55
2022/07/23 07:22:15;;;;;;;6.60;2.20;;;;;;;23.84;50.92;99679.08;109317;1274;23220;-55
2022/07/23 07:24:42;;;;;;;2.60;1.60;;;;;;;23.82;51.06;99680.77;109260;1273;138616;-56
2022/07/23 07:27:27;;;;;;;2.70;1.70;;;;;;;23.81;50.65;99676.29;109347;1273;22464;-55
2022/07/23 07:29:54;;;;;;;2.30;1.80;;;;;;;23.79;51.32;99682.58;109165;1273;138541;-55
2022/07/23 07:32:21;;;;;;;3.30;1.90;;;;;;;23.80;51.74;99678.55;109353;1274;22399;-55
2022/07/23 07:35:08;;;;;;;4.00;1.70;;;;;;;23.83;51.82;99679.61;109361;1274;22498;-55
2022/07/23 07:37:35;;;;;;;2.60;2.00;;;;;;;23.86;52.01;99682.56;109278;1273;137788;-55
2022/07/23 07:40:02;;;;;;;2.10;1.70;;;;;;;23.88;52.01;99678.69;109343;1274;22241;-55
2022/07/23 07:42:29;;;;;;;3.80;1.90;;;;;;;23.89;52.23;99671.90;109228;1274;139372;-55
2022/07/23 07:44:56;;;;;;;6.30;3.00;;;;;;;23.95;52.71;99680.67;109297;1275;22488;-55
2022/07/23 07:47:22;;;;;;;16.90;3.50;;;;;;;24.00;52.26;99678.69;105405;1276;22583;-59
2022/07/23 07:49:49;;;;;;;2.50;1.70;;;;;;;24.02;52.02;99677.83;104913;1275;138177;-59
2022/07/23 07:52:16;;;;;;;3.40;1.90;;;;;;;24.04;51.90;99682.35;105079;1271;22615;-60
2022/07/23 07:54:43;;;;;;;2.00;1.60;;;;;;;24.03;51.28;99684.13;104931;1274;137799;-59
2022/07/23 07:57:10;;;;;;;2.50;2.00;;;;;;;24.03;51.58;99682.69;105087;1274;24166;-59
2022/07/23 07:59:37;;;;;;;2.20;1.70;;;;;;;24.03;51.64;99687.56;105021;1276;23189;-59
2022/07/23 08:02:04;;;;;;;4.10;1.80;;;;;;;24.03;52.02;99686.95;104919;1276;138469;-59
2022/07/23 08:04:31;;;;;;;5.40;2.10;;;;;;;24.04;52.02;99687.83;105018;1276;26595;-59
2022/07/23 08:06:58;;;;;;;2.30;1.80;;;;;;;24.04;51.20;99689.36;105011;1273;138477;-60
2022/07/23 08:09:24;;;;;;;4.50;2.50;;;;;;;24.05;50.85;99690.80;104997;1276;25392;-58
2022/07/23 08:11:51;;;;;;;3.60;1.70;;;;;;;24.04;51.55;99689.49;104947;1275;138227;-59
2022/07/23 08:14:18;;;;;;;3.10;2.00;;;;;;;24.07;52.03;99686.36;105123;1276;26391;-58
2022/07/23 08:16:45;;;;;;;7.70;2.40;;;;;;;24.09;52.22;99686.91;105045;1276;22662;-59
2022/07/23 08:19:32;;;;;;;4.30;2.30;;;;;;;24.14;52.01;99687.94;104892;1276;137974;-59
2022/07/23 08:21:59;;;;;;;5.00;2.60;;;;;;;24.17;51.49;99689.42;104989;1274;22751;-58
2022/07/23 08:24:26;;;;;;;2.80;1.80;;;;;;;24.17;51.47;99687.91;104886;1276;137957;-59
2022/07/23 08:26:53;;;;;;;3.20;1.80;;;;;;;24.18;50.96;99685.88;104996;1275;22564;-58
2022/07/23 08:29:20;;;;;;;3.20;1.80;;;;;;;24.17;51.79;99686.73;105130;1274;25282;-61
2022/07/23 08:31:53;;;;;;;6.00;2.20;;;;;;;24.21;52.48;99681.39;104973;1276;137824;-60
2022/07/23 08:34:19;;;;;;;2.90;1.70;;;;;;;24.26;51.70;99675.97;105184;1274;24142;-59
2022/07/23 08:36:46;;;;;;;3.90;1.90;;;;;;;24.32;51.76;99673.02;105058;1273;137586;-59
2022/07/23 08:39:13;;;;;;;2.80;2.10;;;;;;;24.39;51.44;99671.58;105082;1275;23155;-60
2022/07/23 08:41:41;;;;;;;33.40;6.40;;;;;;;24.45;52.03;99669.79;104998;1276;24268;-59
2022/07/23 08:44:09;;;;;;;8.50;2.20;;;;;;;24.47;51.72;99669.40;104937;1276;139791;-59
2022/07/23 08:46:36;;;;;;;2.10;1.70;;;;;;;24.50;51.65;99668.55;104943;1276;22589;-59
2022/07/23 08:49:09;;;;;;;2.60;2.10;;;;;;;24.51;52.26;99671.61;104889;1274;138118;-60
2022/07/23 08:51:36;;;;;;;3.70;1.90;;;;;;;24.56;51.49;99671.20;105044;1274;22554;-60
2022/07/23 08:54:04;;;;;;;4.70;2.40;;;;;;;24.62;50.84;99668.55;109154;1275;138311;-60
2022/07/23 08:59:05;;;;;;;2.80;1.80;;;;;;;24.74;50.58;99669.70;101880;1309;545226;-59
2022/07/23 09:01:32;;;;;;;4.20;2.10;;;;;;;24.74;50.69;99669.57;103848;1286;137596;-59
2022/07/23 09:03:59;;;;;;;4.10;1.80;;;;;;;24.77;50.42;99667.83;103874;1288;24404;-59
2022/07/23 09:06:27;;;;;;;11.10;2.80;;;;;;;24.80;50.16;99667.08;107529;1287;138572;-59
2022/07/23 09:08:54;;;;;;;19.60;3.30;;;;;;;24.82;49.46;99668.95;108135;1286;22498;-59
2022/07/23 09:11:21;;;;;;;3.60;2.10;;;;;;;24.82;49.68;99665.60;108172;1287;22426;-60
2022/07/23 09:13:58;;;;;;;3.70;2.40;;;;;;;24.83;50.18;99668.52;108094;1284;235431;-59
2022/07/23 09:16:28;;;;;;;2.40;1.90;;;;;;;24.85;49.63;99669.44;108295;1286;23203;-59
2022/07/23 09:19:00;;;;;;;3.70;1.90;;;;;;;24.88;49.00;99666.75;108314;1286;138633;-60
2022/07/23 09:21:46;;;;;;;3.70;2.00;;;;;;;24.89;48.30;99665.91;108323;1285;22947;-59
2022/07/23 09:24:16;;;;;;;7.80;2.70;;;;;;;24.89;48.75;99662.31;108245;1284;137474;-60
2022/07/23 09:26:47;;;;;;;3.00;2.50;;;;;;;24.92;49.00;99663.55;108376;1284;22503;-60
2022/07/23 09:29:18;;;;;;;4.00;2.10;;;;;;;24.96;47.83;99658.10;108498;1284;23625;-60
2022/07/23 09:31:46;;;;;;;4.00;1.80;;;;;;;24.98;47.84;99663.58;108264;1285;137418;-59
2022/07/23 09:34:16;;;;;;;2.10;1.80;;;;;;;24.98;47.06;99658.89;108253;1285;22969;-59
2022/07/23 09:36:43;;;;;;;2.50;2.00;;;;;;;24.99;47.48;99660.60;108316;1285;137536;-59
2022/07/23 09:39:10;;;;;;;5.90;2.80;;;;;;;25.01;47.68;99661.38;108400;1285;22491;-59
2022/07/23 09:41:43;;;;;;;2.50;2.30;;;;;;;25.03;47.92;99657.29;108254;1286;22491;-59
2022/07/23 09:44:20;;;;;;;2.30;1.60;;;;;;;25.05;48.21;99657.29;108408;1284;137037;-60
2022/07/23 09:46:57;;;;;;;1.90;1.70;;;;;;;25.07;47.50;99654.80;108386;1284;22517;-60
2022/07/23 09:49:25;;;;;;;3.10;2.20;;;;;;;25.07;47.59;99656.15;108283;1284;137421;-59
2022/07/23 09:51:54;;;;;;;2.90;2.10;;;;;;;25.07;48.05;99655.45;108462;1284;22541;-60
2022/07/23 09:54:26;;;;;;;9.90;2.10;;;;;;;25.10;47.81;99657.67;108285;1284;137956;-59
2022/07/23 09:56:53;;;;;;;2.60;2.30;;;;;;;25.11;47.59;99653.24;108401;1285;22551;-60
2022/07/23 09:59:33;;;;;;;3.50;2.00;;;;;;;25.11;47.42;99650.43;108500;1284;23708;-60
2022/07/23 10:02:00;;;;;;;2.20;2.00;;;;;;;25.12;47.45;99650.94;108348;1285;137628;-60
2022/07/23 10:04:28;;;;;;;2.60;2.20;;;;;;;25.14;48.38;99654.19;108427;1284;22460;-60
2022/07/23 10:07:08;;;;;;;3.50;2.30;;;;;;;25.20;47.57;99651.05;108228;1285;138237;-60
2022/07/23 10:09:53;;;;;;;3.40;2.00;;;;;;;25.25;47.51;99646.33;108528;1284;22574;-60
2022/07/23 10:15:29;;;;;;;10.30;2.40;;;;;;;25.32;47.95;99637.79;108352;1286;22499;-60
2022/07/23 10:17:56;;;;;;;2.40;1.90;;;;;;;25.38;48.15;99639.15;108315;1286;137939;-59
2022/07/23 10:20:24;;;;;;;2.60;2.40;;;;;;;25.45;47.96;99636.79;108488;1284;22483;-59
2022/07/23 10:23:02;;;;;;;3.50;2.80;;;;;;;25.51;47.57;99635.86;108393;1287;22473;-59
2022/07/23 10:25:49;;;;;;;2.20;1.90;;;;;;;25.56;47.88;99637.04;108288;1284;138293;-59
2022/07/23 10:28:49;;;;;;;6.10;2.30;;;;;;;25.65;47.56;99634.56;108213;1286;22489;-60
2022/07/23 10:31:37;;;;;;;4.00;2.10;;;;;;;25.70;48.08;99636.12;108271;1284;138643;-60
2022/07/23 10:34:31;;;;;;;3.20;2.10;;;;;;;25.75;48.19;99629.39;108362;1285;23179;-60
2022/07/23 10:37:14;;;;;;;6.30;2.50;;;;;;;25.78;47.90;99625.98;108383;1284;138179;-60
2022/07/23 10:39:47;;;;;;;2.60;2.00;;;;;;;25.81;47.34;99625.35;108393;1285;23178;-60
2022/07/23 10:42:15;;;;;;;2.30;2.00;;;;;;;25.82;46.90;99622.73;108417;1284;138368;-60
2022/07/23 10:44:43;;;;;;;3.10;2.30;;;;;;;25.83;46.73;99622.34;108461;1284;22473;-60
2022/07/23 10:49:49;;;;;;;2.80;2.10;;;;;;;25.88;47.15;99620.59;109303;1273;137109;-60
2022/07/23 10:52:26;;;;;;;3.00;1.80;;;;;;;25.90;46.70;99616.89;109319;1273;23710;-60
2022/07/23 10:55:16;;;;;;;2.60;2.40;;;;;;;25.90;47.78;99608.91;109281;1273;137981;-59
2022/07/23 10:57:49;;;;;;;5.80;2.40;;;;;;;25.93;47.93;99610.83;109397;1273;22471;-59
2022/07/23 11:00:19;;;;;;;3.20;2.10;;;;;;;25.96;47.72;99606.77;109198;1273;137723;-59
2022/07/23 11:02:47;;;;;;;2.30;2.10;;;;;;;26.02;47.69;99609.85;109265;1275;22242;-60
2022/07/23 11:05:16;;;;;;;5.60;2.30;;;;;;;26.09;47.06;99609.10;109209;1274;22451;-59
2022/07/23 11:08:05;;;;;;;4.60;2.70;;;;;;;26.16;47.28;99614.86;109032;1275;137974;-60
2022/07/23 11:10:36;;;;;;;2.80;2.00;;;;;;;26.20;46.44;99610.66;109219;1274;22495;-60
2022/07/23 11:13:36;;;;;;;2.40;2.20;;;;;;;26.20;46.02;99610.73;109120;1275;137855;-59
2022/07/23 11:16:04;;;;;;;3.50;2.10;;;;;;;26.16;45.86;99609.34;108689;1281;22511;-60
2022/07/23 11:18:40;;;;;;;5.00;2.00;;;;;;;26.09;45.43;99609.19;108593;1281;138048;-60
2022/07/23 11:21:29;;;;;;;4.50;2.80;;;;;;;26.00;45.42;99605.44;108659;1281;22486;-59
2022/07/23 11:24:09;;;;;;;7.30;2.50;;;;;;;25.94;45.38;99609.89;108774;1280;137958;-59
2022/07/23 11:26:48;;;;;;;2.70;2.00;;;;;;;25.87;45.74;99610.66;108821;1280;22509;-59
2022/07/23 11:29:35;;;;;;;1.80;1.70;;;;;;;25.83;45.12;99608.48;108759;1280;23814;-59
2022/07/23 11:32:38;;;;;;;2.80;2.40;;;;;;;25.80;45.79;99606.16;108634;1280;137709;-59
2022/07/23 11:35:27;;;;;;;2.90;1.90;;;;;;;25.79;45.75;99602.00;107931;1287;22399;-59
2022/07/23 11:38:02;;;;;;;3.90;2.20;;;;;;;25.82;46.42;99600.23;107879;1287;138979;-59
2022/07/23 11:40:29;;;;;;;4.50;3.00;;;;;;;25.86;46.67;99598.17;107935;1287;23282;-59